Date,TemperatureHighF,TemperatureAvgF,TemperatureLowF,DewpointHighF,DewpointAvgF,DewpointLowF,HumidityHigh,HumidityAvg,HumidityLow,PressureMaxIn,PressureMinIn,WindSpeedMaxMPH,WindSpeedAvgMPH,GustSpeedMaxMPH,PrecipitationSumIn
2013-5-1,57,37,16,28,18,11,94,54,16,30.36,30.10,17,3,17,0.00
2013-5-2,72,47,21,28,18,6,86,41,10,30.37,30.07,17,4,17,0.00
2013-5-3,54,45,36,46,37,23,99,75,47,30.12,30.05,12,2,12,0.41
2013-5-4,64,48,36,46,41,36,99,79,41,34.00,30.06,17,3,17,0.04
2013-5-5,73,51,29,44,38,29,99,66,28,30.07,29.85,14,4,18,0.00
2013-5-6,84,57,31,46,36,25,99,57,12,29.90,29.71,11,3,11,0.00
2013-5-7,78,57,34,48,38,33,97,54,23,29.95,29.74,20,5,20,0.00
2013-5-8,82,58,34,44,38,32,95,54,18,30.03,29.88,15,3,15,0.00
2013-5-9,82,60,39,48,42,30,95,56,15,30.02,29.92,17,3,17,0.00
2013-5-10,73,55,37,41,35,28,99,53,20,30.26,29.98,19,5,20,0.00
2013-5-11,90,62,34,46,36,24,91,47,10,30.19,29.91,14,3,19,0.00
2013-5-12,94,70,44,55,41,31,90,44,13,29.96,29.78,15,4,15,0.00
2013-5-13,91,71,53,54,45,32,75,44,13,29.87,29.55,24,4,24,0.00
2013-5-14,76,61,50,34,25,9,53,29,10,29.88,29.79,24,7,24,0.00
2013-5-15,78,58,35,36,28,12,74,37,10,29.91,29.75,11,3,11,0.00
2013-5-16,73,57,40,45,39,34,86,53,29,29.78,29.70,13,3,13,0.00
2013-5-17,61,51,36,52,44,34,98,79,53,29.82,29.75,10,2,10,0.20
2013-5-18,70,54,48,53,49,46,99,83,42,29.88,29.78,14,2,14,0.04
2013-5-19,60,52,47,53,48,46,99,90,71,30.04,29.87,8,1,8,0.31
2013-5-20,68,53,45,54,50,43,99,89,53,30.07,29.59,12,1,12,0.12
2013-5-21,79,59,35,53,39,24,99,57,15,29.85,29.47,22,5,22,0.01
2013-5-22,66,57,46,51,44,34,96,63,39,29.74,29.65,21,4,21,0.26
2013-5-23,60,48,42,47,44,41,99,87,57,29.83,29.70,13,2,13,0.58
2013-5-24,71,53,41,44,39,28,99,65,22,29.85,29.73,21,5,21,0.04
2013-5-25,76,55,35,44,38,33,94,58,24,29.86,29.76,16,3,16,0.00
2013-5-26,72,53,33,52,42,33,99,72,33,29.88,29.74,14,3,14,0.34
2013-5-27,73,52,40,53,46,39,99,84,39,29.79,29.66,10,2,10,0.05
2013-5-28,68,52,41,53,48,41,99,87,49,29.67,29.62,9,2,9,0.27
2013-5-29,70,56,47,53,48,44,99,76,47,29.67,29.55,16,3,16,0.00
2013-5-30,60,53,47,50,46,39,97,78,48,29.85,29.63,9,2,11,0.06
2013-5-31,59,50,43,48,45,39,97,85,60,30.14,29.85,14,2,14,0.11